createdAt,value
2018-11-27T00:02:48.831Z,15.40
2018-11-27T00:06:57.162Z,15.13
2018-11-27T00:11:04.765Z,16.37
2018-11-27T00:15:15.601Z,16.20
2018-11-27T00:19:23.170Z,16.00
2018-11-27T00:23:30.567Z,15.80
2018-11-27T00:27:38.005Z,15.07
2018-11-27T00:31:46.401Z,16.13
2018-11-27T00:35:53.799Z,15.20
2018-11-27T00:40:01.198Z,16.30
2018-11-27T00:44:09.718Z,15.40
2018-11-27T00:48:17.104Z,16.83
2018-11-27T00:52:27.144Z,15.80
2018-11-27T00:56:34.656Z,15.37
2018-11-27T01:00:42.157Z,15.33
2018-11-27T01:04:49.509Z,14.87
2018-11-27T01:08:56.932Z,14.47
2018-11-27T01:13:04.308Z,15.00
2018-11-27T01:17:11.734Z,15.63
2018-11-27T01:21:19.175Z,14.57
2018-11-27T01:25:26.567Z,16.30
2018-11-27T01:29:33.949Z,15.70
2018-11-27T01:33:41.291Z,16.67
2018-11-27T01:37:49.456Z,15.90
2018-11-27T01:41:56.876Z,16.03
2018-11-27T01:46:04.457Z,16.43
2018-11-27T01:50:13.841Z,16.13
2018-11-27T01:54:21.580Z,15.53
2018-11-27T01:58:29.025Z,15.13
2018-11-27T02:02:36.554Z,14.97
2018-11-27T02:06:44.077Z,16.73
2018-11-27T02:10:51.515Z,14.93
2018-11-27T02:14:59.058Z,17.03
2018-11-27T02:19:06.490Z,16.53
2018-11-27T02:23:14.108Z,17.07
2018-11-27T02:27:21.665Z,16.47
2018-11-27T02:31:29.137Z,15.53
2018-11-27T02:35:36.816Z,18.67
2018-11-27T02:39:44.359Z,17.37
2018-11-27T02:43:51.787Z,16.63
2018-11-27T02:47:59.194Z,16.73
2018-11-27T02:52:06.838Z,16.93
2018-11-27T02:56:14.195Z,16.20
2018-11-27T03:00:28.665Z,16.83
2018-11-27T03:04:36.162Z,17.13
2018-11-27T03:08:44.276Z,17.90
2018-11-27T03:12:52.113Z,18.27
2018-11-27T03:16:59.515Z,17.83
2018-11-27T03:21:07.724Z,17.40
2018-11-27T03:25:22.832Z,16.53
2018-11-27T03:29:30.380Z,17.17
2018-11-27T03:33:37.790Z,16.10
2018-11-27T03:37:47.234Z,17.00
2018-11-27T03:41:54.000Z,17.20
2018-11-27T03:46:01.347Z,16.53
2018-11-27T03:50:15.390Z,17.50
2018-11-27T03:54:22.811Z,17.03
2018-11-27T03:58:31.122Z,18.57
2018-11-27T04:02:38.564Z,17.20
2018-11-27T04:06:46.083Z,17.40
2018-11-27T04:10:53.436Z,17.27
2018-11-27T04:15:00.788Z,17.80
2018-11-27T04:19:09.099Z,17.60
2018-11-27T04:23:16.649Z,17.90
2018-11-27T04:27:24.053Z,18.73
2018-11-27T04:31:31.639Z,19.27
2018-11-27T04:35:39.075Z,18.87
2018-11-27T04:39:46.520Z,18.17
2018-11-27T04:43:53.988Z,19.67
2018-11-27T04:48:01.481Z,19.30
2018-11-27T04:52:09.365Z,18.03
2018-11-27T04:56:16.858Z,18.93
2018-11-27T05:00:30.380Z,18.80
2018-11-27T05:04:37.812Z,16.87
2018-11-27T05:08:45.215Z,18.60
2018-11-27T05:12:52.612Z,19.57
2018-11-27T05:17:00.006Z,19.03
2018-11-27T05:21:07.548Z,17.87
2018-11-27T05:25:19.603Z,18.63
2018-11-27T05:29:27.088Z,18.60
2018-11-27T05:33:34.521Z,17.97
2018-11-27T05:37:42.713Z,17.90
2018-11-27T05:41:50.239Z,18.20
2018-11-27T05:45:58.548Z,17.83
2018-11-27T05:50:06.811Z,19.17
2018-11-27T05:54:15.062Z,18.20
2018-11-27T05:58:22.509Z,17.67
2018-11-27T06:02:29.995Z,18.03
2018-11-27T06:06:37.408Z,18.33
2018-11-27T06:10:44.791Z,18.90
2018-11-27T06:14:52.166Z,18.60
2018-11-27T06:18:59.572Z,18.63
2018-11-27T06:23:07.188Z,18.57
2018-11-27T06:27:14.579Z,18.63
2018-11-27T06:31:22.023Z,19.53
2018-11-27T06:35:40.755Z,17.90
2018-11-27T06:39:48.302Z,17.80
2018-11-27T06:43:58.981Z,19.43
2018-11-27T06:48:06.659Z,18.10
2018-11-27T06:52:14.040Z,18.33
2018-11-27T06:56:21.455Z,18.03
2018-11-27T07:00:31.875Z,19.20
2018-11-27T07:04:39.385Z,17.80
2018-11-27T07:08:46.836Z,17.07
2018-11-27T07:12:56.217Z,18.00
2018-11-27T07:17:03.607Z,16.37
2018-11-27T07:21:11.061Z,17.67
2018-11-27T07:25:18.888Z,16.60
2018-11-27T07:29:26.340Z,16.67
2018-11-27T07:33:33.726Z,17.83
2018-11-27T07:37:41.291Z,17.13
2018-11-27T07:41:48.785Z,17.40
2018-11-27T07:45:57.605Z,16.17
2018-11-27T07:50:05.049Z,15.90
2018-11-27T07:54:13.538Z,17.20
2018-11-27T07:58:21.028Z,16.60
2018-11-27T08:02:28.453Z,16.97
2018-11-27T08:06:35.816Z,16.47
2018-11-27T08:10:44.379Z,16.20
2018-11-27T08:14:51.759Z,17.50
2018-11-27T08:18:59.106Z,18.67
2018-11-27T08:23:07.474Z,17.90
2018-11-27T08:27:14.849Z,17.83
2018-11-27T08:31:22.260Z,16.43
2018-11-27T08:35:30.988Z,16.77
2018-11-27T08:39:38.429Z,16.33
2018-11-27T08:43:45.851Z,16.47
2018-11-27T08:47:54.689Z,16.23
2018-11-27T08:52:02.346Z,16.97
2018-11-27T08:56:10.508Z,16.73
2018-11-27T09:00:27.561Z,15.47
2018-11-27T09:04:35.635Z,16.57
2018-11-27T09:08:44.020Z,15.70
2018-11-27T09:12:52.660Z,15.77
2018-11-27T09:17:00.370Z,17.20
2018-11-27T09:21:08.327Z,17.13
2018-11-27T09:25:16.356Z,17.07
2018-11-27T09:29:24.815Z,16.83
2018-11-27T09:33:32.463Z,17.90
2018-11-27T09:37:40.380Z,17.70
2018-11-27T09:41:51.739Z,18.23
2018-11-27T09:45:59.154Z,17.47
2018-11-27T09:50:10.188Z,17.90
2018-11-27T09:54:17.836Z,17.80
2018-11-27T09:58:25.813Z,18.80
2018-11-27T10:02:33.523Z,18.20
2018-11-27T10:06:41.037Z,18.40
2018-11-27T10:10:48.618Z,17.13
2018-11-27T10:14:56.229Z,18.43
2018-11-27T10:19:06.610Z,18.53
2018-11-27T10:23:16.043Z,18.70
2018-11-27T10:27:23.802Z,18.13
2018-11-27T10:31:31.284Z,18.17
2018-11-27T10:35:57.708Z,18.33
2018-11-27T10:40:05.880Z,19.27
2018-11-27T10:44:13.722Z,18.33
2018-11-27T10:48:22.542Z,18.20
2018-11-27T10:52:31.200Z,19.40
2018-11-27T10:56:38.890Z,18.63
2018-11-27T11:01:03.800Z,18.70
2018-11-27T11:05:11.738Z,18.20
2018-11-27T11:09:19.549Z,18.87
2018-11-27T11:13:27.890Z,18.13
2018-11-27T11:17:37.410Z,18.60
2018-11-27T11:21:44.832Z,18.53
2018-11-27T11:25:53.185Z,19.07
2018-11-27T11:30:00.776Z,18.73
2018-11-27T11:34:09.881Z,19.50
2018-11-27T11:38:18.036Z,17.97
2018-11-27T11:42:27.515Z,19.37
2018-11-27T11:46:35.363Z,19.67
2018-11-27T11:50:43.546Z,18.33
2018-11-27T11:54:54.095Z,19.23
2018-11-27T11:59:01.889Z,18.30
2018-11-27T12:03:11.108Z,17.70
2018-11-27T12:07:18.695Z,18.87
2018-11-27T12:11:26.378Z,19.60
2018-11-27T12:15:37.381Z,18.37
2018-11-27T12:19:45.581Z,19.70
2018-11-27T12:23:54.287Z,18.27
2018-11-27T12:28:14.892Z,19.40
2018-11-27T12:32:30.989Z,19.97
2018-11-27T12:36:38.441Z,19.40
2018-11-27T12:40:46.201Z,20.23
2018-11-27T12:45:00.049Z,19.97
2018-11-27T12:49:13.429Z,19.97
2018-11-27T12:53:22.644Z,19.00
2018-11-27T12:57:30.213Z,18.83
2018-11-27T13:01:39.838Z,19.83
2018-11-27T13:05:57.435Z,20.77
2018-11-27T13:10:05.988Z,18.63
2018-11-27T13:14:21.684Z,19.53
2018-11-27T13:18:30.655Z,19.73
2018-11-27T13:22:50.592Z,21.33
2018-11-27T13:26:58.121Z,20.50
2018-11-27T13:31:12.517Z,21.37
2018-11-27T13:35:27.358Z,19.67
2018-11-27T13:39:43.417Z,20.10
2018-11-27T13:43:53.593Z,20.30
2018-11-27T13:48:06.205Z,20.40
2018-11-27T13:52:12.946Z,21.30
2018-11-27T13:56:29.004Z,19.17
2018-11-27T14:00:43.083Z,19.00
2018-11-27T14:04:53.732Z,19.30
2018-11-27T14:09:05.818Z,20.40
2018-11-27T14:13:25.165Z,18.13
2018-11-27T14:17:34.596Z,19.77
2018-11-27T14:21:45.820Z,19.10
2018-11-27T14:25:54.379Z,19.70
2018-11-27T14:30:08.101Z,20.00
2018-11-27T14:34:16.209Z,19.40
2018-11-27T14:38:25.976Z,19.53
2018-11-27T14:42:34.445Z,18.90
2018-11-27T14:46:44.678Z,19.13
2018-11-27T14:50:52.224Z,19.63
2018-11-27T14:54:59.840Z,19.43
2018-11-27T14:59:07.457Z,18.90
2018-11-27T15:03:19.191Z,19.83
2018-11-27T15:07:27.143Z,18.67
2018-11-27T15:11:35.898Z,18.97
2018-11-27T15:15:46.255Z,19.27
2018-11-27T15:19:54.139Z,18.77
2018-11-27T15:24:01.848Z,18.00
2018-11-27T15:28:09.882Z,18.73
2018-11-27T15:32:17.790Z,18.43
2018-11-27T15:36:25.535Z,18.23
2018-11-27T15:40:33.843Z,17.97
2018-11-27T15:44:41.647Z,19.37
2018-11-27T15:48:50.030Z,17.87
2018-11-27T15:52:58.645Z,19.33
2018-11-27T15:57:06.443Z,19.07
2018-11-27T16:01:14.423Z,18.80
2018-11-27T16:05:27.187Z,20.10
2018-11-27T16:09:35.247Z,17.40
2018-11-27T16:13:43.282Z,18.00
2018-11-27T16:17:53.835Z,18.77
2018-11-27T16:22:02.952Z,18.00
2018-11-27T16:26:10.785Z,18.50
2018-11-27T16:30:32.103Z,16.67
2018-11-27T16:34:39.715Z,17.70
2018-11-27T16:38:47.546Z,17.83
2018-11-27T16:42:55.720Z,18.67
2018-11-27T16:47:05.968Z,17.97
2018-11-27T16:51:15.936Z,18.60
2018-11-27T16:55:25.662Z,16.97
2018-11-27T16:59:34.234Z,17.90
2018-11-27T17:03:42.383Z,17.70
2018-11-27T17:07:52.146Z,17.53
2018-11-27T17:12:00.271Z,18.90
2018-11-27T17:16:08.701Z,17.53
2018-11-27T17:20:30.853Z,17.00
2018-11-27T17:24:41.497Z,17.80
2018-11-27T17:28:50.822Z,16.60
2018-11-27T17:33:03.420Z,16.63
2018-11-27T17:37:11.197Z,16.63
2018-11-27T17:41:19.046Z,17.07
2018-11-27T17:45:27.118Z,17.63
2018-11-27T17:49:38.043Z,17.20
2018-11-27T17:53:51.457Z,17.40
2018-11-27T17:58:04.720Z,17.97
2018-11-27T18:02:45.757Z,17.87
2018-11-27T18:06:59.851Z,16.77
2018-11-27T18:11:10.433Z,17.13
2018-11-27T18:15:20.263Z,18.50
2018-11-27T18:19:27.882Z,16.90
2018-11-27T18:23:36.300Z,17.40
2018-11-27T18:27:46.097Z,16.87
2018-11-27T18:31:53.878Z,17.63
2018-11-27T18:36:01.733Z,17.67
2018-11-27T18:40:11.840Z,18.60
2018-11-27T18:44:19.757Z,18.93
2018-11-27T18:48:27.487Z,17.67
2018-11-27T18:52:35.453Z,18.87
2018-11-27T18:56:44.803Z,17.67
2018-11-27T19:00:52.682Z,17.67
2018-11-27T19:05:01.418Z,18.23
2018-11-27T19:09:12.356Z,17.87
2018-11-27T19:13:20.100Z,17.57
2018-11-27T19:17:36.698Z,19.17
2018-11-27T19:21:47.721Z,16.20
2018-11-27T19:25:55.690Z,17.90
2018-11-27T19:30:03.532Z,17.50
2018-11-27T19:34:11.519Z,18.33
2018-11-27T19:38:21.989Z,19.10
2018-11-27T19:42:29.919Z,19.10
2018-11-27T19:46:38.134Z,17.70
2018-11-27T19:50:58.873Z,18.87
2018-11-27T19:55:14.614Z,18.07
2018-11-27T19:59:22.507Z,17.40
2018-11-27T20:03:30.421Z,19.37
2018-11-27T20:07:39.132Z,18.77
2018-11-27T20:11:47.029Z,19.77
2018-11-27T20:15:54.850Z,19.33
2018-11-27T20:20:02.930Z,18.70
2018-11-27T20:24:12.651Z,20.00
2018-11-27T20:28:20.562Z,18.93
2018-11-27T20:32:35.579Z,19.43
2018-11-27T20:36:45.976Z,20.97
2018-11-27T20:40:56.622Z,21.10
2018-11-27T20:45:06.051Z,19.33
2018-11-27T20:49:13.854Z,19.33
2018-11-27T20:53:21.861Z,20.83
2018-11-27T20:57:29.720Z,19.30
2018-11-27T21:01:37.655Z,21.47
2018-11-27T21:05:45.402Z,19.37
2018-11-27T21:09:53.111Z,20.77
2018-11-27T21:14:01.057Z,19.83
2018-11-27T21:18:10.328Z,20.63
2018-11-27T21:22:18.184Z,21.03
2018-11-27T21:26:26.148Z,20.90
2018-11-27T21:30:36.318Z,21.87
2018-11-27T21:34:44.405Z,21.37
2018-11-27T21:38:55.614Z,21.20
2018-11-27T21:43:12.818Z,21.97
2018-11-27T21:47:22.341Z,23.73
2018-11-27T21:51:31.026Z,21.47
2018-11-27T21:55:43.609Z,23.87
2018-11-27T22:00:06.399Z,24.70
2018-11-27T22:04:15.568Z,23.57
2018-11-27T22:08:27.986Z,22.83
2018-11-27T22:12:40.638Z,22.97
2018-11-27T22:16:58.328Z,23.97
2018-11-27T22:21:07.749Z,23.23
2018-11-27T22:25:16.323Z,22.17
2018-11-27T22:29:25.127Z,22.13
2018-11-27T22:33:33.499Z,22.50
2018-11-27T22:37:43.512Z,23.10
2018-11-27T22:41:54.976Z,22.03
2018-11-27T22:46:03.307Z,23.57
2018-11-27T22:50:21.278Z,22.70
2018-11-27T22:54:29.355Z,21.93
2018-11-27T22:58:38.366Z,20.67
2018-11-27T23:02:50.470Z,21.40
2018-11-27T23:07:03.410Z,20.87
2018-11-27T23:11:14.760Z,21.63
2018-11-27T23:15:27.542Z,23.10
2018-11-27T23:19:35.673Z,22.00
2018-11-27T23:23:44.509Z,22.93
2018-11-27T23:27:55.618Z,23.07
2018-11-27T23:32:09.977Z,21.60
2018-11-27T23:36:29.370Z,22.63
2018-11-27T23:40:40.543Z,21.07
2018-11-27T23:44:49.734Z,22.50
2018-11-27T23:48:57.513Z,22.67
2018-11-27T23:53:11.664Z,22.70
2018-11-27T23:57:20.115Z,20.90
